• pl
  • eng

Awiacja
WIADOMOŚCI
ostatnia aktualizacja: 13.03.2020 07:57
Od dnia 13.03.2020 do odwołania zawieszone zostaje opracowywanie prognozy Gafor.
Komunikaty METAR z lotnisk wojskowych. 07:01 10.04.2020

METAR EPCE 100530Z 00000KT CAVOK M00/M02
Q1024 RMK M004 092 0/0=

METAR EPDA 100530Z 28006KT 240V310 CAVOK 06/03
Q1025 RMK 058 084 2/2=

METAR EPDE 100530Z 29006KT 9999 FEW200 06/02 Q1024 RMK 056 076 2/2=

METAR EPIR 100530Z 26006KT 9999 NSC 03/M02 Q1025 RMK 031 068 5/5=

METAR EPKS 100530Z 30003KT 9999 NSC 02/M01 Q1026 RMK 017 082 3/3=

METAR EPLK 100530Z VRB02KT 9999 NSC 02/00 Q1025 RMK 024 086 3/3=

METAR EPLY 100530Z 24004KT 9999 NSC 03/00 Q1025 RMK 032 081 4/4=

METAR EPMB 100530Z 25002KT 9999 NSC 01/M00 Q1024 RMK 013 091 0/0=

METAR EPMI 100530Z VRB02KT 9999 NSC M01/M02 Q1026 RMK M009 090
3/3=

METAR EPMM 100530Z 35005KT 9999 FEW050 SCT070 04/03 Q1024 RMK 041
092 3/1=

METAR EPNA 100530Z NIL=

METAR EPOK 100530Z 30005KT CAVOK 05/02
Q1024 RMK 048 083 0/0=

METAR EPPR 100530Z 24002KT 9999 NSC 03/01 Q1025 RMK 030 084 0/0=

METAR COR EPPW 100530Z 28004KT 9999 NSC 02/M02 Q1026RMK 021 076 4/4=

METAR EPRA 100530Z 33004KT 9999 NSC 06/02 Q1024 RMK 059 078 2/2=

METAR EPSN 100530Z 28004KT 9999 FEW200 01/00 Q1025 RMK 013 093 2/2=

METAR EPTM 100530Z 31004KT 9999 NSC 05/01 Q1025 RMK 051 073 3/3=
Awiacja.imgw.pl jest pogodowym serwisem informacyjnym
Instytutu Meteorologii i Gospodarki Wodnej Państwowego Instytutu Badawczego.
Copyright IMGW PIB 2009-2019© Wszelkie prawa zastrzeżone.